LIRA

Ciampino–G. B. Pastine International Airport

Roma, Italy
TAF LIRA 192300Z 2000/2024 VRB06KT 9999 SCT030 TEMPO 2009/2018 SHRA
Issued Valid From Valid To
Sep-19 @ 23:00 UTC
(2 hours ago)
Sep-20 @ 00:00 UTC
(42 minutes ago)
Sep-21 @ 00:00 UTC
(in 23 hours)
Sep-20 @ 00:00 to Sep-21 @ 00:00
TAF LIRA 192300Z 2000/2024 VRB06KT 9999 SCT030
Wind Visibility Clouds
Variable at 6 knots 10,000+ meters
  • Scattered at 3,000' AGL
Temporary Sep-20 @ 09:00 to Sep-20 @ 18:00
TEMPO 2009/2018 SHRA
Conditions
  • Rain
TAF LIRA 192300Z 2000/2024 VRB06KT 9999 SCT030 TEMPO 2009/2018 SHRA
Issued Sep-19 @ 23:00 UTC
(2 hours ago)
Valid From Sep-20 @ 00:00 UTC
(42 minutes ago)
Valid To Sep-21 @ 00:00 UTC
(in 23 hours)
Sep-20 @ 00:00 - Sep-21 @ 00:00
Wind Visibility
Variable at 6 knots 10,000+ meters
Clouds
  • Scattered at 3,000' AGL
Temporary Sep-20 @ 09:00 - Sep-20 @ 18:00
Conditions
  • Rain